sensor_id;sensor_type;location;lat;lon;timestamp;P1;durP1;ratioP1;P2;durP2;ratioP2
55007;SDS011;40902;45.116;21.296;2023-08-08T00:00:51;0.82;;;0.60;;
55007;SDS011;40902;45.116;21.296;2023-08-08T00:03:17;1.27;;;1.02;;
55007;SDS011;40902;45.116;21.296;2023-08-08T00:08:16;1.73;;;1.00;;
55007;SDS011;40902;45.116;21.296;2023-08-08T00:10:42;1.30;;;0.70;;
55007;SDS011;40902;45.116;21.296;2023-08-08T00:13:08;0.73;;;0.65;;
55007;SDS011;40902;45.116;21.296;2023-08-08T00:15:35;2.35;;;0.98;;
55007;SDS011;40902;45.116;21.296;2023-08-08T00:18:05;1.27;;;0.80;;
55007;SDS011;40902;45.116;21.296;2023-08-08T00:20:39;0.95;;;0.63;;
55007;SDS011;40902;45.116;21.296;2023-08-08T00:23:05;1.17;;;0.60;;
55007;SDS011;40902;45.116;21.296;2023-08-08T00:25:31;1.33;;;0.85;;
55007;SDS011;40902;45.116;21.296;2023-08-08T00:27:57;0.93;;;0.70;;
55007;SDS011;40902;45.116;21.296;2023-08-08T00:30:33;1.35;;;0.80;;
55007;SDS011;40902;45.116;21.296;2023-08-08T00:32:59;0.77;;;0.70;;
55007;SDS011;40902;45.116;21.296;2023-08-08T00:35:27;1.52;;;0.85;;
55007;SDS011;40902;45.116;21.296;2023-08-08T00:37:53;1.92;;;0.90;;
55007;SDS011;40902;45.116;21.296;2023-08-08T00:40:19;3.42;;;0.90;;
55007;SDS011;40902;45.116;21.296;2023-08-08T00:42:48;1.02;;;0.60;;
55007;SDS011;40902;45.116;21.296;2023-08-08T00:45:14;1.48;;;0.75;;
55007;SDS011;40902;45.116;21.296;2023-08-08T00:47:40;1.05;;;0.80;;
55007;SDS011;40902;45.116;21.296;2023-08-08T00:50:09;1.13;;;0.63;;
55007;SDS011;40902;45.116;21.296;2023-08-08T00:52:36;1.23;;;0.93;;
55007;SDS011;40902;45.116;21.296;2023-08-08T00:55:03;1.20;;;0.80;;
55007;SDS011;40902;45.116;21.296;2023-08-08T00:57:29;0.88;;;0.70;;
55007;SDS011;40902;45.116;21.296;2023-08-08T00:59:56;1.52;;;1.00;;
55007;SDS011;40902;45.116;21.296;2023-08-08T01:02:24;1.00;;;0.75;;
55007;SDS011;40902;45.116;21.296;2023-08-08T01:04:50;0.85;;;0.70;;
55007;SDS011;40902;45.116;21.296;2023-08-08T01:12:32;1.52;;;0.90;;
55007;SDS011;40902;45.116;21.296;2023-08-08T01:15:03;1.20;;;0.80;;
55007;SDS011;40902;45.116;21.296;2023-08-08T01:17:31;0.80;;;0.70;;
55007;SDS011;40902;45.116;21.296;2023-08-08T01:19:57;1.80;;;0.60;;
55007;SDS011;40902;45.116;21.296;2023-08-08T01:22:29;1.65;;;0.95;;
55007;SDS011;40902;45.116;21.296;2023-08-08T01:24:58;2.03;;;0.80;;
55007;SDS011;40902;45.116;21.296;2023-08-08T01:27:25;0.80;;;0.70;;
55007;SDS011;40902;45.116;21.296;2023-08-08T01:29:52;1.38;;;0.85;;
55007;SDS011;40902;45.116;21.296;2023-08-08T01:32:20;0.98;;;0.70;;
55007;SDS011;40902;45.116;21.296;2023-08-08T01:34:47;0.95;;;0.77;;
55007;SDS011;40902;45.116;21.296;2023-08-08T01:37:14;1.58;;;0.98;;
55007;SDS011;40902;45.116;21.296;2023-08-08T01:39:41;1.17;;;0.65;;
55007;SDS011;40902;45.116;21.296;2023-08-08T01:42:10;1.08;;;0.80;;
55007;SDS011;40902;45.116;21.296;2023-08-08T01:44:37;1.33;;;0.82;;
55007;SDS011;40902;45.116;21.296;2023-08-08T01:47:05;1.02;;;0.85;;
55007;SDS011;40902;45.116;21.296;2023-08-08T01:49:31;1.88;;;0.70;;
55007;SDS011;40902;45.116;21.296;2023-08-08T01:51:57;0.88;;;0.80;;
55007;SDS011;40902;45.116;21.296;2023-08-08T01:54:23;1.38;;;0.80;;
55007;SDS011;40902;45.116;21.296;2023-08-08T01:56:50;1.17;;;0.73;;
55007;SDS011;40902;45.116;21.296;2023-08-08T01:59:16;1.08;;;0.60;;
55007;SDS011;40902;45.116;21.296;2023-08-08T02:01:44;1.92;;;0.80;;
55007;SDS011;40902;45.116;21.296;2023-08-08T02:04:17;1.10;;;0.68;;
55007;SDS011;40902;45.116;21.296;2023-08-08T02:06:43;1.52;;;0.90;;
55007;SDS011;40902;45.116;21.296;2023-08-08T02:09:09;0.55;;;0.52;;
55007;SDS011;40902;45.116;21.296;2023-08-08T02:11:35;1.40;;;0.80;;
55007;SDS011;40902;45.116;21.296;2023-08-08T02:14:02;0.95;;;0.68;;
55007;SDS011;40902;45.116;21.296;2023-08-08T02:16:30;1.15;;;0.68;;
55007;SDS011;40902;45.116;21.296;2023-08-08T02:18:59;1.10;;;0.80;;
55007;SDS011;40902;45.116;21.296;2023-08-08T02:21:26;1.55;;;0.60;;
55007;SDS011;40902;45.116;21.296;2023-08-08T02:23:52;1.58;;;0.90;;
55007;SDS011;40902;45.116;21.296;2023-08-08T02:26:18;1.55;;;0.55;;
55007;SDS011;40902;45.116;21.296;2023-08-08T02:28:51;0.90;;;0.73;;
55007;SDS011;40902;45.116;21.296;2023-08-08T02:31:17;0.77;;;0.70;;
55007;SDS011;40902;45.116;21.296;2023-08-08T02:33:49;0.85;;;0.55;;
55007;SDS011;40902;45.116;21.296;2023-08-08T02:36:16;1.08;;;0.73;;
55007;SDS011;40902;45.116;21.296;2023-08-08T02:38:42;0.65;;;0.65;;
55007;SDS011;40902;45.116;21.296;2023-08-08T02:41:08;1.58;;;0.73;;
55007;SDS011;40902;45.116;21.296;2023-08-08T02:43:34;1.20;;;0.70;;
55007;SDS011;40902;45.116;21.296;2023-08-08T02:46:00;1.20;;;0.60;;
55007;SDS011;40902;45.116;21.296;2023-08-08T02:48:26;0.93;;;0.60;;
55007;SDS011;40902;45.116;21.296;2023-08-08T02:50:52;0.65;;;0.55;;
55007;SDS011;40902;45.116;21.296;2023-08-08T02:53:18;0.80;;;0.60;;
55007;SDS011;40902;45.116;21.296;2023-08-08T02:55:44;1.08;;;0.80;;
55007;SDS011;40902;45.116;21.296;2023-08-08T02:58:10;0.80;;;0.57;;
55007;SDS011;40902;45.116;21.296;2023-08-08T03:00:41;0.50;;;0.50;;
55007;SDS011;40902;45.116;21.296;2023-08-08T03:03:07;1.58;;;0.52;;
55007;SDS011;40902;45.116;21.296;2023-08-08T03:05:33;1.20;;;0.70;;
55007;SDS011;40902;45.116;21.296;2023-08-08T03:08:05;0.63;;;0.52;;
55007;SDS011;40902;45.116;21.296;2023-08-08T03:10:31;0.60;;;0.57;;
55007;SDS011;40902;45.116;21.296;2023-08-08T03:12:57;0.95;;;0.70;;
55007;SDS011;40902;45.116;21.296;2023-08-08T03:15:25;0.98;;;0.70;;
55007;SDS011;40902;45.116;21.296;2023-08-08T03:17:54;0.68;;;0.60;;
55007;SDS011;40902;45.116;21.296;2023-08-08T03:20:22;0.75;;;0.57;;
55007;SDS011;40902;45.116;21.296;2023-08-08T03:22:48;1.08;;;0.70;;
55007;SDS011;40902;45.116;21.296;2023-08-08T03:25:14;0.73;;;0.73;;
55007;SDS011;40902;45.116;21.296;2023-08-08T03:27:43;0.77;;;0.57;;
55007;SDS011;40902;45.116;21.296;2023-08-08T03:30:09;0.80;;;0.50;;
55007;SDS011;40902;45.116;21.296;2023-08-08T03:32:35;1.13;;;0.65;;
55007;SDS011;40902;45.116;21.296;2023-08-08T03:35:04;1.05;;;0.80;;
55007;SDS011;40902;45.116;21.296;2023-08-08T03:37:34;0.65;;;0.65;;
55007;SDS011;40902;45.116;21.296;2023-08-08T03:40:00;0.70;;;0.70;;
55007;SDS011;40902;45.116;21.296;2023-08-08T03:42:32;1.00;;;0.52;;
55007;SDS011;40902;45.116;21.296;2023-08-08T03:44:58;1.23;;;0.70;;
55007;SDS011;40902;45.116;21.296;2023-08-08T03:47:24;0.50;;;0.50;;
55007;SDS011;40902;45.116;21.296;2023-08-08T03:49:54;1.00;;;0.60;;
55007;SDS011;40902;45.116;21.296;2023-08-08T03:52:22;0.65;;;0.47;;
55007;SDS011;40902;45.116;21.296;2023-08-08T03:54:48;0.90;;;0.63;;
55007;SDS011;40902;45.116;21.296;2023-08-08T03:57:17;0.60;;;0.57;;
55007;SDS011;40902;45.116;21.296;2023-08-08T03:59:45;0.88;;;0.65;;
55007;SDS011;40902;45.116;21.296;2023-08-08T04:02:11;1.00;;;0.77;;
55007;SDS011;40902;45.116;21.296;2023-08-08T04:04:37;1.10;;;0.60;;
55007;SDS011;40902;45.116;21.296;2023-08-08T04:07:03;0.77;;;0.77;;
55007;SDS011;40902;45.116;21.296;2023-08-08T04:09:34;1.20;;;0.70;;
55007;SDS011;40902;45.116;21.296;2023-08-08T04:12:00;0.82;;;0.63;;
55007;SDS011;40902;45.116;21.296;2023-08-08T04:14:26;0.95;;;0.68;;
55007;SDS011;40902;45.116;21.296;2023-08-08T04:16:53;0.60;;;0.60;;
55007;SDS011;40902;45.116;21.296;2023-08-08T04:19:21;1.55;;;0.73;;
55007;SDS011;40902;45.116;21.296;2023-08-08T04:21:50;0.98;;;0.70;;
55007;SDS011;40902;45.116;21.296;2023-08-08T04:24:16;0.88;;;0.60;;
55007;SDS011;40902;45.116;21.296;2023-08-08T04:26:44;0.85;;;0.73;;
55007;SDS011;40902;45.116;21.296;2023-08-08T04:29:13;0.80;;;0.70;;
55007;SDS011;40902;45.116;21.296;2023-08-08T04:31:41;1.85;;;0.85;;
55007;SDS011;40902;45.116;21.296;2023-08-08T04:34:10;0.75;;;0.60;;
55007;SDS011;40902;45.116;21.296;2023-08-08T04:36:36;0.82;;;0.60;;
55007;SDS011;40902;45.116;21.296;2023-08-08T04:39:02;0.80;;;0.65;;
55007;SDS011;40902;45.116;21.296;2023-08-08T04:41:28;1.30;;;1.10;;
55007;SDS011;40902;45.116;21.296;2023-08-08T04:43:54;0.80;;;0.60;;
55007;SDS011;40902;45.116;21.296;2023-08-08T04:46:20;1.23;;;0.80;;
55007;SDS011;40902;45.116;21.296;2023-08-08T04:48:51;0.93;;;0.70;;
55007;SDS011;40902;45.116;21.296;2023-08-08T04:51:20;1.65;;;0.88;;
55007;SDS011;40902;45.116;21.296;2023-08-08T04:53:51;0.85;;;0.55;;
55007;SDS011;40902;45.116;21.296;2023-08-08T04:56:17;1.45;;;0.63;;
55007;SDS011;40902;45.116;21.296;2023-08-08T04:58:43;0.85;;;0.60;;
55007;SDS011;40902;45.116;21.296;2023-08-08T05:01:09;1.75;;;0.50;;
55007;SDS011;40902;45.116;21.296;2023-08-08T05:03:39;1.55;;;0.73;;
55007;SDS011;40902;45.116;21.296;2023-08-08T05:06:07;1.30;;;0.70;;
55007;SDS011;40902;45.116;21.296;2023-08-08T05:11:09;3.03;;;1.05;;
55007;SDS011;40902;45.116;21.296;2023-08-08T05:13:35;1.75;;;0.70;;
55007;SDS011;40902;45.116;21.296;2023-08-08T05:16:01;2.40;;;0.85;;
55007;SDS011;40902;45.116;21.296;2023-08-08T05:18:27;3.35;;;0.93;;
55007;SDS011;40902;45.116;21.296;2023-08-08T05:20:53;1.38;;;0.85;;
55007;SDS011;40902;45.116;21.296;2023-08-08T05:23:20;0.88;;;0.75;;
55007;SDS011;40902;45.116;21.296;2023-08-08T05:25:46;1.23;;;0.80;;
55007;SDS011;40902;45.116;21.296;2023-08-08T05:28:12;1.05;;;0.80;;
55007;SDS011;40902;45.116;21.296;2023-08-08T05:30:38;0.60;;;0.60;;
55007;SDS011;40902;45.116;21.296;2023-08-08T05:33:04;1.23;;;0.80;;
55007;SDS011;40902;45.116;21.296;2023-08-08T05:35:30;1.52;;;1.00;;
55007;SDS011;40902;45.116;21.296;2023-08-08T05:37:56;1.25;;;0.73;;
55007;SDS011;40902;45.116;21.296;2023-08-08T05:40:22;1.58;;;0.75;;
55007;SDS011;40902;45.116;21.296;2023-08-08T05:42:48;1.05;;;0.90;;
55007;SDS011;40902;45.116;21.296;2023-08-08T05:45:16;2.50;;;0.95;;
55007;SDS011;40902;45.116;21.296;2023-08-08T05:47:47;1.23;;;0.85;;
55007;SDS011;40902;45.116;21.296;2023-08-08T05:50:13;1.30;;;0.90;;
55007;SDS011;40902;45.116;21.296;2023-08-08T05:52:39;0.98;;;0.70;;
55007;SDS011;40902;45.116;21.296;2023-08-08T05:55:08;1.05;;;0.52;;
55007;SDS011;40902;45.116;21.296;2023-08-08T05:57:34;2.28;;;0.95;;
55007;SDS011;40902;45.116;21.296;2023-08-08T06:00:03;1.33;;;0.82;;
55007;SDS011;40902;45.116;21.296;2023-08-08T06:02:30;1.67;;;1.00;;
55007;SDS011;40902;45.116;21.296;2023-08-08T06:04:56;2.08;;;0.82;;
55007;SDS011;40902;45.116;21.296;2023-08-08T06:07:22;1.02;;;0.75;;
55007;SDS011;40902;45.116;21.296;2023-08-08T06:09:53;1.30;;;0.82;;
55007;SDS011;40902;45.116;21.296;2023-08-08T06:12:22;1.80;;;1.17;;
55007;SDS011;40902;45.116;21.296;2023-08-08T06:14:48;1.15;;;0.85;;
55007;SDS011;40902;45.116;21.296;2023-08-08T06:17:14;1.40;;;0.90;;
55007;SDS011;40902;45.116;21.296;2023-08-08T06:19:42;1.23;;;0.77;;
55007;SDS011;40902;45.116;21.296;2023-08-08T06:22:08;1.10;;;0.77;;
55007;SDS011;40902;45.116;21.296;2023-08-08T06:24:34;1.95;;;1.10;;
55007;SDS011;40902;45.116;21.296;2023-08-08T06:27:00;1.63;;;1.02;;
55007;SDS011;40902;45.116;21.296;2023-08-08T06:29:26;1.40;;;1.10;;
55007;SDS011;40902;45.116;21.296;2023-08-08T06:31:55;2.35;;;0.90;;
55007;SDS011;40902;45.116;21.296;2023-08-08T06:34:24;1.92;;;1.17;;
55007;SDS011;40902;45.116;21.296;2023-08-08T06:36:51;1.35;;;1.00;;
55007;SDS011;40902;45.116;21.296;2023-08-08T06:39:17;2.58;;;1.00;;
55007;SDS011;40902;45.116;21.296;2023-08-08T06:41:46;1.23;;;1.00;;
55007;SDS011;40902;45.116;21.296;2023-08-08T06:44:12;2.20;;;1.00;;
55007;SDS011;40902;45.116;21.296;2023-08-08T06:46:38;1.35;;;1.00;;
55007;SDS011;40902;45.116;21.296;2023-08-08T06:49:04;1.58;;;1.02;;
55007;SDS011;40902;45.116;21.296;2023-08-08T06:51:32;2.03;;;1.00;;
55007;SDS011;40902;45.116;21.296;2023-08-08T06:53:58;0.80;;;0.80;;
55007;SDS011;40902;45.116;21.296;2023-08-08T06:56:32;2.83;;;1.10;;
55007;SDS011;40902;45.116;21.296;2023-08-08T06:58:58;2.65;;;1.08;;
55007;SDS011;40902;45.116;21.296;2023-08-08T07:01:25;1.75;;;1.10;;
55007;SDS011;40902;45.116;21.296;2023-08-08T07:03:51;1.88;;;1.00;;
55007;SDS011;40902;45.116;21.296;2023-08-08T07:06:17;3.58;;;1.00;;
55007;SDS011;40902;45.116;21.296;2023-08-08T07:08:43;3.40;;;1.10;;
55007;SDS011;40902;45.116;21.296;2023-08-08T07:11:09;1.90;;;1.20;;
55007;SDS011;40902;45.116;21.296;2023-08-08T07:13:38;3.47;;;1.25;;
55007;SDS011;40902;45.116;21.296;2023-08-08T07:16:04;2.40;;;0.93;;
55007;SDS011;40902;45.116;21.296;2023-08-08T07:18:32;2.03;;;1.02;;
55007;SDS011;40902;45.116;21.296;2023-08-08T07:20:58;2.42;;;1.15;;
55007;SDS011;40902;45.116;21.296;2023-08-08T07:23:25;2.80;;;1.10;;
55007;SDS011;40902;45.116;21.296;2023-08-08T07:25:51;2.20;;;1.10;;
55007;SDS011;40902;45.116;21.296;2023-08-08T07:28:19;1.33;;;1.00;;
55007;SDS011;40902;45.116;21.296;2023-08-08T07:30:46;1.63;;;1.20;;
55007;SDS011;40902;45.116;21.296;2023-08-08T07:33:12;1.83;;;0.93;;
55007;SDS011;40902;45.116;21.296;2023-08-08T07:35:38;2.60;;;1.08;;
55007;SDS011;40902;45.116;21.296;2023-08-08T07:38:10;2.50;;;0.95;;
55007;SDS011;40902;45.116;21.296;2023-08-08T07:40:36;3.85;;;1.05;;
55007;SDS011;40902;45.116;21.296;2023-08-08T07:43:02;2.08;;;1.08;;
55007;SDS011;40902;45.116;21.296;2023-08-08T07:45:29;1.80;;;1.10;;
55007;SDS011;40902;45.116;21.296;2023-08-08T07:47:55;1.38;;;1.05;;
55007;SDS011;40902;45.116;21.296;2023-08-08T07:50:21;2.33;;;0.90;;
55007;SDS011;40902;45.116;21.296;2023-08-08T07:52:52;1.33;;;0.93;;
55007;SDS011;40902;45.116;21.296;2023-08-08T07:55:18;1.75;;;1.00;;
55007;SDS011;40902;45.116;21.296;2023-08-08T07:57:45;2.30;;;1.30;;
55007;SDS011;40902;45.116;21.296;2023-08-08T08:00:11;1.40;;;1.10;;
55007;SDS011;40902;45.116;21.296;2023-08-08T08:02:38;1.70;;;1.00;;
55007;SDS011;40902;45.116;21.296;2023-08-08T08:05:04;3.05;;;1.15;;
55007;SDS011;40902;45.116;21.296;2023-08-08T08:07:32;2.00;;;1.00;;
55007;SDS011;40902;45.116;21.296;2023-08-08T08:09:59;2.53;;;1.02;;
55007;SDS011;40902;45.116;21.296;2023-08-08T08:12:25;1.20;;;1.08;;
55007;SDS011;40902;45.116;21.296;2023-08-08T08:14:51;4.00;;;1.10;;
55007;SDS011;40902;45.116;21.296;2023-08-08T08:17:17;2.60;;;1.20;;
55007;SDS011;40902;45.116;21.296;2023-08-08T08:19:43;1.30;;;0.80;;
55007;SDS011;40902;45.116;21.296;2023-08-08T08:22:12;1.27;;;0.93;;
55007;SDS011;40902;45.116;21.296;2023-08-08T08:24:38;2.53;;;1.10;;
55007;SDS011;40902;45.116;21.296;2023-08-08T08:27:04;1.48;;;1.10;;
55007;SDS011;40902;45.116;21.296;2023-08-08T08:29:30;1.20;;;1.08;;
55007;SDS011;40902;45.116;21.296;2023-08-08T08:31:57;2.20;;;0.88;;
55007;SDS011;40902;45.116;21.296;2023-08-08T08:34:24;2.17;;;0.93;;
55007;SDS011;40902;45.116;21.296;2023-08-08T08:36:50;1.33;;;1.00;;
55007;SDS011;40902;45.116;21.296;2023-08-08T08:39:16;1.90;;;0.98;;
55007;SDS011;40902;45.116;21.296;2023-08-08T08:41:42;1.10;;;1.00;;
55007;SDS011;40902;45.116;21.296;2023-08-08T08:44:12;1.42;;;0.88;;
55007;SDS011;40902;45.116;21.296;2023-08-08T08:46:38;2.05;;;1.20;;
55007;SDS011;40902;45.116;21.296;2023-08-08T08:49:05;1.92;;;1.10;;
55007;SDS011;40902;45.116;21.296;2023-08-08T08:51:34;1.25;;;0.90;;
55007;SDS011;40902;45.116;21.296;2023-08-08T08:54:01;2.05;;;0.93;;
55007;SDS011;40902;45.116;21.296;2023-08-08T08:56:27;2.47;;;1.08;;
55007;SDS011;40902;45.116;21.296;2023-08-08T08:58:53;1.30;;;1.00;;
55007;SDS011;40902;45.116;21.296;2023-08-08T09:01:19;1.27;;;0.90;;
55007;SDS011;40902;45.116;21.296;2023-08-08T09:03:47;2.25;;;1.00;;
55007;SDS011;40902;45.116;21.296;2023-08-08T09:06:13;1.50;;;1.05;;
55007;SDS011;40902;45.116;21.296;2023-08-08T09:08:41;1.98;;;1.08;;
55007;SDS011;40902;45.116;21.296;2023-08-08T09:11:10;2.47;;;1.10;;
55007;SDS011;40902;45.116;21.296;2023-08-08T09:13:39;1.35;;;1.02;;
55007;SDS011;40902;45.116;21.296;2023-08-08T09:16:06;1.85;;;1.08;;
55007;SDS011;40902;45.116;21.296;2023-08-08T09:18:32;1.83;;;1.00;;
55007;SDS011;40902;45.116;21.296;2023-08-08T09:20:58;1.17;;;1.00;;
55007;SDS011;40902;45.116;21.296;2023-08-08T09:23:24;1.25;;;0.90;;
55007;SDS011;40902;45.116;21.296;2023-08-08T09:25:50;0.98;;;0.80;;
55007;SDS011;40902;45.116;21.296;2023-08-08T09:28:17;1.25;;;0.82;;
55007;SDS011;40902;45.116;21.296;2023-08-08T09:30:43;1.65;;;1.10;;
55007;SDS011;40902;45.116;21.296;2023-08-08T09:33:09;1.40;;;0.90;;
55007;SDS011;40902;45.116;21.296;2023-08-08T09:35:40;1.20;;;1.08;;
55007;SDS011;40902;45.116;21.296;2023-08-08T09:38:10;2.15;;;1.10;;
55007;SDS011;40902;45.116;21.296;2023-08-08T09:40:41;1.38;;;1.08;;
55007;SDS011;40902;45.116;21.296;2023-08-08T09:43:07;1.55;;;1.10;;
55007;SDS011;40902;45.116;21.296;2023-08-08T09:45:39;1.65;;;1.00;;
55007;SDS011;40902;45.116;21.296;2023-08-08T09:48:07;1.65;;;1.00;;
55007;SDS011;40902;45.116;21.296;2023-08-08T09:50:33;1.38;;;0.98;;
55007;SDS011;40902;45.116;21.296;2023-08-08T09:53:01;1.48;;;0.93;;
55007;SDS011;40902;45.116;21.296;2023-08-08T09:55:29;1.10;;;1.00;;
55007;SDS011;40902;45.116;21.296;2023-08-08T09:57:57;1.15;;;0.90;;
55007;SDS011;40902;45.116;21.296;2023-08-08T10:00:23;1.73;;;0.90;;
55007;SDS011;40902;45.116;21.296;2023-08-08T10:02:52;0.98;;;0.80;;
55007;SDS011;40902;45.116;21.296;2023-08-08T10:05:19;1.00;;;0.80;;
55007;SDS011;40902;45.116;21.296;2023-08-08T10:07:50;1.52;;;1.00;;
55007;SDS011;40902;45.116;21.296;2023-08-08T10:10:19;0.98;;;0.90;;
55007;SDS011;40902;45.116;21.296;2023-08-08T10:12:47;1.17;;;0.85;;
55007;SDS011;40902;45.116;21.296;2023-08-08T10:15:18;1.33;;;1.00;;
55007;SDS011;40902;45.116;21.296;2023-08-08T10:17:47;1.52;;;1.10;;
55007;SDS011;40902;45.116;21.296;2023-08-08T10:20:19;1.38;;;1.10;;
55007;SDS011;40902;45.116;21.296;2023-08-08T10:22:46;1.80;;;1.10;;
55007;SDS011;40902;45.116;21.296;2023-08-08T10:28:12;3.25;;;1.45;;
55007;SDS011;40902;45.116;21.296;2023-08-08T10:30:48;2.33;;;1.20;;
55007;SDS011;40902;45.116;21.296;2023-08-08T10:33:22;1.20;;;1.08;;
55007;SDS011;40902;45.116;21.296;2023-08-08T10:38:26;2.10;;;1.40;;
55007;SDS011;40902;45.116;21.296;2023-08-08T10:40:56;1.75;;;1.00;;
55007;SDS011;40902;45.116;21.296;2023-08-08T10:43:26;2.40;;;1.30;;
55007;SDS011;40902;45.116;21.296;2023-08-08T10:45:53;2.00;;;1.27;;
55007;SDS011;40902;45.116;21.296;2023-08-08T10:48:25;4.15;;;1.90;;
55007;SDS011;40902;45.116;21.296;2023-08-08T10:50:59;2.47;;;1.60;;
55007;SDS011;40902;45.116;21.296;2023-08-08T10:53:26;2.40;;;1.40;;
55007;SDS011;40902;45.116;21.296;2023-08-08T10:56:02;2.20;;;1.45;;
55007;SDS011;40902;45.116;21.296;2023-08-08T10:58:38;1.60;;;1.10;;
55007;SDS011;40902;45.116;21.296;2023-08-08T11:01:07;2.63;;;1.48;;
55007;SDS011;40902;45.116;21.296;2023-08-08T11:03:39;5.40;;;1.30;;
55007;SDS011;40902;45.116;21.296;2023-08-08T11:06:06;2.42;;;1.52;;
55007;SDS011;40902;45.116;21.296;2023-08-08T11:08:35;2.60;;;1.40;;
55007;SDS011;40902;45.116;21.296;2023-08-08T11:11:03;2.28;;;1.30;;
55007;SDS011;40902;45.116;21.296;2023-08-08T11:13:29;1.33;;;0.98;;
55007;SDS011;40902;45.116;21.296;2023-08-08T11:15:55;1.75;;;1.20;;
55007;SDS011;40902;45.116;21.296;2023-08-08T11:18:22;3.13;;;1.50;;
55007;SDS011;40902;45.116;21.296;2023-08-08T11:20:48;2.45;;;1.30;;
55007;SDS011;40902;45.116;21.296;2023-08-08T11:23:15;1.95;;;1.30;;
55007;SDS011;40902;45.116;21.296;2023-08-08T11:25:42;2.38;;;1.10;;
55007;SDS011;40902;45.116;21.296;2023-08-08T11:28:09;2.05;;;1.20;;
55007;SDS011;40902;45.116;21.296;2023-08-08T11:30:37;2.95;;;1.40;;
55007;SDS011;40902;45.116;21.296;2023-08-08T11:33:06;1.45;;;0.90;;
55007;SDS011;40902;45.116;21.296;2023-08-08T11:35:32;1.60;;;1.15;;
55007;SDS011;40902;45.116;21.296;2023-08-08T11:38:03;2.58;;;1.35;;
55007;SDS011;40902;45.116;21.296;2023-08-08T11:40:31;1.83;;;1.30;;
55007;SDS011;40902;45.116;21.296;2023-08-08T11:42:58;2.42;;;1.45;;
55007;SDS011;40902;45.116;21.296;2023-08-08T11:45:24;2.17;;;1.30;;
55007;SDS011;40902;45.116;21.296;2023-08-08T11:47:52;1.80;;;1.20;;
55007;SDS011;40902;45.116;21.296;2023-08-08T11:50:19;2.00;;;1.05;;
55007;SDS011;40902;45.116;21.296;2023-08-08T11:52:45;2.17;;;1.35;;
55007;SDS011;40902;45.116;21.296;2023-08-08T11:55:12;2.05;;;1.20;;
55007;SDS011;40902;45.116;21.296;2023-08-08T11:57:40;2.95;;;1.20;;
55007;SDS011;40902;45.116;21.296;2023-08-08T12:00:10;2.42;;;1.20;;
55007;SDS011;40902;45.116;21.296;2023-08-08T12:02:41;2.28;;;1.30;;
55007;SDS011;40902;45.116;21.296;2023-08-08T12:05:12;1.73;;;1.08;;
55007;SDS011;40902;45.116;21.296;2023-08-08T12:07:38;2.83;;;1.20;;
55007;SDS011;40902;45.116;21.296;2023-08-08T12:10:17;1.55;;;1.17;;
55007;SDS011;40902;45.116;21.296;2023-08-08T12:15:09;2.05;;;1.10;;
55007;SDS011;40902;45.116;21.296;2023-08-08T12:17:38;2.05;;;1.10;;
55007;SDS011;40902;45.116;21.296;2023-08-08T12:20:05;2.47;;;1.17;;
55007;SDS011;40902;45.116;21.296;2023-08-08T12:22:32;1.58;;;1.10;;
55007;SDS011;40902;45.116;21.296;2023-08-08T12:24:58;1.50;;;1.10;;
55007;SDS011;40902;45.116;21.296;2023-08-08T12:27:28;1.85;;;1.00;;
55007;SDS011;40902;45.116;21.296;2023-08-08T12:29:54;2.83;;;1.20;;
55007;SDS011;40902;45.116;21.296;2023-08-08T12:32:20;2.35;;;1.30;;
55007;SDS011;40902;45.116;21.296;2023-08-08T12:34:48;4.85;;;1.58;;
55007;SDS011;40902;45.116;21.296;2023-08-08T12:37:15;2.15;;;1.10;;
55007;SDS011;40902;45.116;21.296;2023-08-08T12:39:41;3.10;;;1.40;;
55007;SDS011;40902;45.116;21.296;2023-08-08T12:42:09;3.80;;;1.40;;
55007;SDS011;40902;45.116;21.296;2023-08-08T12:44:35;4.05;;;1.30;;
55007;SDS011;40902;45.116;21.296;2023-08-08T12:47:01;2.05;;;1.20;;
55007;SDS011;40902;45.116;21.296;2023-08-08T12:49:28;2.13;;;1.20;;
55007;SDS011;40902;45.116;21.296;2023-08-08T12:51:56;2.33;;;1.10;;
55007;SDS011;40902;45.116;21.296;2023-08-08T12:54:25;2.65;;;1.25;;
55007;SDS011;40902;45.116;21.296;2023-08-08T12:56:51;1.75;;;1.10;;
55007;SDS011;40902;45.116;21.296;2023-08-08T12:59:19;1.38;;;1.10;;
55007;SDS011;40902;45.116;21.296;2023-08-08T13:01:45;1.63;;;1.10;;
55007;SDS011;40902;45.116;21.296;2023-08-08T13:04:14;2.45;;;1.10;;
55007;SDS011;40902;45.116;21.296;2023-08-08T13:06:40;3.30;;;1.15;;
55007;SDS011;40902;45.116;21.296;2023-08-08T13:09:09;2.10;;;1.23;;
55007;SDS011;40902;45.116;21.296;2023-08-08T13:11:35;1.45;;;1.02;;
55007;SDS011;40902;45.116;21.296;2023-08-08T13:14:01;2.33;;;1.25;;
55007;SDS011;40902;45.116;21.296;2023-08-08T13:16:30;1.58;;;1.00;;
55007;SDS011;40902;45.116;21.296;2023-08-08T13:18:58;2.13;;;1.10;;
55007;SDS011;40902;45.116;21.296;2023-08-08T13:21:25;2.20;;;1.10;;
55007;SDS011;40902;45.116;21.296;2023-08-08T13:23:51;3.53;;;1.05;;
55007;SDS011;40902;45.116;21.296;2023-08-08T13:26:19;2.08;;;1.20;;
55007;SDS011;40902;45.116;21.296;2023-08-08T13:28:50;2.17;;;1.02;;
55007;SDS011;40902;45.116;21.296;2023-08-08T13:31:19;1.52;;;1.20;;
55007;SDS011;40902;45.116;21.296;2023-08-08T13:33:45;2.88;;;1.20;;
55007;SDS011;40902;45.116;21.296;2023-08-08T13:36:11;1.40;;;1.08;;
55007;SDS011;40902;45.116;21.296;2023-08-08T13:38:38;1.35;;;1.10;;
55007;SDS011;40902;45.116;21.296;2023-08-08T13:41:04;1.65;;;1.02;;
55007;SDS011;40902;45.116;21.296;2023-08-08T13:43:30;3.45;;;1.30;;
55007;SDS011;40902;45.116;21.296;2023-08-08T13:45:56;1.63;;;1.10;;
55007;SDS011;40902;45.116;21.296;2023-08-08T13:48:23;2.38;;;0.95;;
55007;SDS011;40902;45.116;21.296;2023-08-08T13:50:49;1.35;;;1.00;;
55007;SDS011;40902;45.116;21.296;2023-08-08T13:53:16;5.25;;;1.55;;
55007;SDS011;40902;45.116;21.296;2023-08-08T13:55:42;1.95;;;1.30;;
55007;SDS011;40902;45.116;21.296;2023-08-08T13:58:10;3.00;;;1.38;;
55007;SDS011;40902;45.116;21.296;2023-08-08T14:00:36;2.42;;;1.40;;
55007;SDS011;40902;45.116;21.296;2023-08-08T14:03:03;3.25;;;1.30;;
55007;SDS011;40902;45.116;21.296;2023-08-08T14:05:34;3.10;;;1.55;;
55007;SDS011;40902;45.116;21.296;2023-08-08T14:08:02;2.83;;;1.40;;
55007;SDS011;40902;45.116;21.296;2023-08-08T14:10:28;2.88;;;1.38;;
55007;SDS011;40902;45.116;21.296;2023-08-08T14:12:54;1.80;;;1.30;;
55007;SDS011;40902;45.116;21.296;2023-08-08T14:15:20;1.90;;;1.25;;
55007;SDS011;40902;45.116;21.296;2023-08-08T14:17:46;2.45;;;1.30;;
55007;SDS011;40902;45.116;21.296;2023-08-08T14:20:13;1.88;;;1.10;;
55007;SDS011;40902;45.116;21.296;2023-08-08T14:22:39;1.73;;;1.27;;
55007;SDS011;40902;45.116;21.296;2023-08-08T14:25:07;4.07;;;1.48;;
55007;SDS011;40902;45.116;21.296;2023-08-08T14:27:33;2.50;;;1.40;;
55007;SDS011;40902;45.116;21.296;2023-08-08T14:30:01;1.98;;;1.15;;
55007;SDS011;40902;45.116;21.296;2023-08-08T14:32:27;2.60;;;1.40;;
55007;SDS011;40902;45.116;21.296;2023-08-08T14:34:53;2.42;;;1.13;;
55007;SDS011;40902;45.116;21.296;2023-08-08T14:37:19;1.80;;;1.13;;
55007;SDS011;40902;45.116;21.296;2023-08-08T14:39:50;2.38;;;1.20;;
55007;SDS011;40902;45.116;21.296;2023-08-08T14:42:16;2.05;;;1.35;;
55007;SDS011;40902;45.116;21.296;2023-08-08T14:44:43;1.50;;;1.15;;
55007;SDS011;40902;45.116;21.296;2023-08-08T14:47:09;3.42;;;1.48;;
55007;SDS011;40902;45.116;21.296;2023-08-08T14:49:38;3.72;;;1.55;;
55007;SDS011;40902;45.116;21.296;2023-08-08T14:52:04;2.92;;;1.42;;